sensor_id;sensor_type;location;lat;lon;timestamp;P1;durP1;ratioP1;P2;durP2;ratioP2
41943;SDS011;27636;52.610;13.244;2024-03-02T00:02:39;43.65;;;17.35;;
41943;SDS011;27636;52.610;13.244;2024-03-02T00:07:44;40.03;;;17.13;;
41943;SDS011;27636;52.610;13.244;2024-03-02T00:12:50;34.55;;;18.73;;
41943;SDS011;27636;52.610;13.244;2024-03-02T00:17:53;42.25;;;17.17;;
41943;SDS011;27636;52.610;13.244;2024-03-02T00:23:01;41.60;;;18.38;;
41943;SDS011;27636;52.610;13.244;2024-03-02T00:28:26;37.70;;;15.75;;
41943;SDS011;27636;52.610;13.244;2024-03-02T00:33:33;48.80;;;19.15;;
41943;SDS011;27636;52.610;13.244;2024-03-02T00:38:44;45.72;;;16.85;;
41943;SDS011;27636;52.610;13.244;2024-03-02T00:43:53;47.45;;;17.75;;
41943;SDS011;27636;52.610;13.244;2024-03-02T00:49:01;38.22;;;16.63;;
41943;SDS011;27636;52.610;13.244;2024-03-02T00:54:08;43.72;;;17.20;;
41943;SDS011;27636;52.610;13.244;2024-03-02T00:59:14;36.78;;;16.17;;
41943;SDS011;27636;52.610;13.244;2024-03-02T01:04:19;32.45;;;14.43;;
41943;SDS011;27636;52.610;13.244;2024-03-02T01:09:23;37.23;;;15.87;;
41943;SDS011;27636;52.610;13.244;2024-03-02T01:14:28;35.47;;;14.55;;
41943;SDS011;27636;52.610;13.244;2024-03-02T01:19:32;42.90;;;15.32;;
41943;SDS011;27636;52.610;13.244;2024-03-02T01:24:35;44.88;;;18.83;;
41943;SDS011;27636;52.610;13.244;2024-03-02T01:29:41;34.22;;;16.98;;
41943;SDS011;27636;52.610;13.244;2024-03-02T01:34:46;38.78;;;17.10;;
41943;SDS011;27636;52.610;13.244;2024-03-02T01:39:50;41.75;;;17.27;;
41943;SDS011;27636;52.610;13.244;2024-03-02T01:44:58;40.55;;;17.10;;
41943;SDS011;27636;52.610;13.244;2024-03-02T01:50:02;38.80;;;16.38;;
41943;SDS011;27636;52.610;13.244;2024-03-02T02:00:16;40.15;;;18.13;;
41943;SDS011;27636;52.610;13.244;2024-03-02T02:05:25;45.78;;;19.17;;
41943;SDS011;27636;52.610;13.244;2024-03-02T02:10:29;32.40;;;15.68;;
41943;SDS011;27636;52.610;13.244;2024-03-02T02:15:35;44.92;;;16.55;;
41943;SDS011;27636;52.610;13.244;2024-03-02T02:20:39;44.83;;;18.27;;
41943;SDS011;27636;52.610;13.244;2024-03-02T02:25:49;44.15;;;19.75;;
41943;SDS011;27636;52.610;13.244;2024-03-02T02:30:54;48.50;;;18.60;;
41943;SDS011;27636;52.610;13.244;2024-03-02T02:36:01;39.47;;;19.15;;
41943;SDS011;27636;52.610;13.244;2024-03-02T02:41:08;40.28;;;16.42;;
41943;SDS011;27636;52.610;13.244;2024-03-02T02:46:12;45.90;;;16.27;;
41943;SDS011;27636;52.610;13.244;2024-03-02T02:51:16;35.33;;;14.63;;
41943;SDS011;27636;52.610;13.244;2024-03-02T02:56:22;40.17;;;17.08;;
41943;SDS011;27636;52.610;13.244;2024-03-02T03:01:26;38.63;;;17.05;;
41943;SDS011;27636;52.610;13.244;2024-03-02T03:06:31;42.33;;;16.80;;
41943;SDS011;27636;52.610;13.244;2024-03-02T03:11:37;46.17;;;17.37;;
41943;SDS011;27636;52.610;13.244;2024-03-02T03:16:41;49.97;;;20.40;;
41943;SDS011;27636;52.610;13.244;2024-03-02T03:21:44;60.97;;;24.83;;
41943;SDS011;27636;52.610;13.244;2024-03-02T03:26:50;55.90;;;22.02;;
41943;SDS011;27636;52.610;13.244;2024-03-02T03:31:53;67.07;;;24.70;;
41943;SDS011;27636;52.610;13.244;2024-03-02T03:36:58;52.45;;;24.30;;
41943;SDS011;27636;52.610;13.244;2024-03-02T03:42:04;61.37;;;24.80;;
41943;SDS011;27636;52.610;13.244;2024-03-02T03:47:08;53.35;;;25.00;;
41943;SDS011;27636;52.610;13.244;2024-03-02T03:52:12;60.50;;;23.23;;
41943;SDS011;27636;52.610;13.244;2024-03-02T03:57:17;63.53;;;24.23;;
41943;SDS011;27636;52.610;13.244;2024-03-02T04:02:21;56.30;;;20.65;;
41943;SDS011;27636;52.610;13.244;2024-03-02T04:07:25;53.30;;;20.67;;
41943;SDS011;27636;52.610;13.244;2024-03-02T04:12:31;63.90;;;24.63;;
41943;SDS011;27636;52.610;13.244;2024-03-02T04:22:39;48.58;;;20.60;;
41943;SDS011;27636;52.610;13.244;2024-03-02T04:27:44;50.83;;;20.17;;
41943;SDS011;27636;52.610;13.244;2024-03-02T04:32:48;52.38;;;19.85;;
41943;SDS011;27636;52.610;13.244;2024-03-02T04:37:52;56.22;;;21.55;;
41943;SDS011;27636;52.610;13.244;2024-03-02T04:42:57;50.35;;;18.65;;
41943;SDS011;27636;52.610;13.244;2024-03-02T04:48:02;45.72;;;19.77;;
41943;SDS011;27636;52.610;13.244;2024-03-02T04:53:06;35.57;;;18.10;;
41943;SDS011;27636;52.610;13.244;2024-03-02T04:58:12;53.22;;;21.20;;
41943;SDS011;27636;52.610;13.244;2024-03-02T05:08:21;40.55;;;18.23;;
41943;SDS011;27636;52.610;13.244;2024-03-02T05:13:26;44.08;;;17.95;;
41943;SDS011;27636;52.610;13.244;2024-03-02T05:18:30;43.67;;;19.23;;
41943;SDS011;27636;52.610;13.244;2024-03-02T05:23:34;64.78;;;21.20;;
41943;SDS011;27636;52.610;13.244;2024-03-02T05:28:39;44.90;;;18.85;;
41943;SDS011;27636;52.610;13.244;2024-03-02T05:33:43;52.50;;;20.70;;
41943;SDS011;27636;52.610;13.244;2024-03-02T05:38:48;62.72;;;23.33;;
41943;SDS011;27636;52.610;13.244;2024-03-02T05:43:53;48.17;;;19.70;;
41943;SDS011;27636;52.610;13.244;2024-03-02T05:48:58;60.17;;;23.38;;
41943;SDS011;27636;52.610;13.244;2024-03-02T05:54:02;55.23;;;21.30;;
41943;SDS011;27636;52.610;13.244;2024-03-02T05:59:07;59.33;;;23.38;;
41943;SDS011;27636;52.610;13.244;2024-03-02T06:04:19;52.15;;;22.95;;
41943;SDS011;27636;52.610;13.244;2024-03-02T06:09:23;55.40;;;20.60;;
41943;SDS011;27636;52.610;13.244;2024-03-02T06:14:29;50.00;;;22.58;;
41943;SDS011;27636;52.610;13.244;2024-03-02T06:19:33;53.70;;;22.20;;
41943;SDS011;27636;52.610;13.244;2024-03-02T06:24:38;51.63;;;22.50;;
41943;SDS011;27636;52.610;13.244;2024-03-02T06:29:43;65.43;;;23.33;;
41943;SDS011;27636;52.610;13.244;2024-03-02T06:34:47;55.65;;;20.95;;
41943;SDS011;27636;52.610;13.244;2024-03-02T06:39:51;49.65;;;21.25;;
41943;SDS011;27636;52.610;13.244;2024-03-02T06:44:56;57.42;;;24.50;;
41943;SDS011;27636;52.610;13.244;2024-03-02T06:55:04;67.18;;;23.55;;
41943;SDS011;27636;52.610;13.244;2024-03-02T07:05:16;62.97;;;23.80;;
41943;SDS011;27636;52.610;13.244;2024-03-02T07:10:20;53.95;;;22.38;;
41943;SDS011;27636;52.610;13.244;2024-03-02T07:15:25;60.53;;;23.77;;
41943;SDS011;27636;52.610;13.244;2024-03-02T07:21:08;61.03;;;24.70;;
41943;SDS011;27636;52.610;13.244;2024-03-02T07:26:12;62.50;;;26.33;;
41943;SDS011;27636;52.610;13.244;2024-03-02T07:31:20;78.05;;;25.17;;
41943;SDS011;27636;52.610;13.244;2024-03-02T07:36:24;53.15;;;23.00;;
41943;SDS011;27636;52.610;13.244;2024-03-02T07:41:27;65.18;;;26.48;;
41943;SDS011;27636;52.610;13.244;2024-03-02T07:46:32;62.75;;;22.00;;
41943;SDS011;27636;52.610;13.244;2024-03-02T07:51:36;54.22;;;24.13;;
41943;SDS011;27636;52.610;13.244;2024-03-02T07:56:40;58.35;;;24.08;;
41943;SDS011;27636;52.610;13.244;2024-03-02T08:01:46;60.05;;;22.73;;
41943;SDS011;27636;52.610;13.244;2024-03-02T08:06:50;61.63;;;22.67;;
41943;SDS011;27636;52.610;13.244;2024-03-02T08:11:56;76.03;;;25.90;;
41943;SDS011;27636;52.610;13.244;2024-03-02T08:17:02;55.90;;;20.63;;
41943;SDS011;27636;52.610;13.244;2024-03-02T08:22:12;65.32;;;23.35;;
41943;SDS011;27636;52.610;13.244;2024-03-02T08:27:16;60.25;;;22.88;;
41943;SDS011;27636;52.610;13.244;2024-03-02T08:32:21;64.65;;;23.90;;
41943;SDS011;27636;52.610;13.244;2024-03-02T08:37:25;58.78;;;23.80;;
41943;SDS011;27636;52.610;13.244;2024-03-02T08:42:30;67.33;;;25.53;;
41943;SDS011;27636;52.610;13.244;2024-03-02T08:47:35;59.92;;;24.35;;
41943;SDS011;27636;52.610;13.244;2024-03-02T08:52:39;66.45;;;24.10;;
41943;SDS011;27636;52.610;13.244;2024-03-02T08:57:46;63.60;;;24.58;;
41943;SDS011;27636;52.610;13.244;2024-03-02T09:02:52;59.17;;;24.60;;
41943;SDS011;27636;52.610;13.244;2024-03-02T09:07:58;55.30;;;23.23;;
41943;SDS011;27636;52.610;13.244;2024-03-02T09:13:02;54.77;;;22.03;;
41943;SDS011;27636;52.610;13.244;2024-03-02T09:18:08;70.07;;;25.43;;
41943;SDS011;27636;52.610;13.244;2024-03-02T09:23:12;60.20;;;23.65;;
41943;SDS011;27636;52.610;13.244;2024-03-02T09:28:16;59.35;;;22.38;;
41943;SDS011;27636;52.610;13.244;2024-03-02T09:33:22;60.42;;;24.88;;
41943;SDS011;27636;52.610;13.244;2024-03-02T09:43:30;61.03;;;25.35;;
41943;SDS011;27636;52.610;13.244;2024-03-02T09:48:36;55.60;;;19.80;;
41943;SDS011;27636;52.610;13.244;2024-03-02T09:53:40;61.53;;;24.63;;
41943;SDS011;27636;52.610;13.244;2024-03-02T09:58:44;60.33;;;23.27;;
41943;SDS011;27636;52.610;13.244;2024-03-02T10:03:50;62.03;;;25.90;;
41943;SDS011;27636;52.610;13.244;2024-03-02T10:08:55;52.88;;;21.33;;
41943;SDS011;27636;52.610;13.244;2024-03-02T10:14:05;54.37;;;21.90;;
41943;SDS011;27636;52.610;13.244;2024-03-02T10:19:16;46.58;;;19.15;;
41943;SDS011;27636;52.610;13.244;2024-03-02T10:24:22;45.90;;;19.85;;
41943;SDS011;27636;52.610;13.244;2024-03-02T10:29:27;49.83;;;18.73;;
41943;SDS011;27636;52.610;13.244;2024-03-02T10:34:34;40.83;;;19.15;;
41943;SDS011;27636;52.610;13.244;2024-03-02T10:39:39;42.42;;;18.15;;
41943;SDS011;27636;52.610;13.244;2024-03-02T10:44:45;42.97;;;16.92;;
41943;SDS011;27636;52.610;13.244;2024-03-02T10:49:53;37.30;;;16.42;;
41943;SDS011;27636;52.610;13.244;2024-03-02T10:54:59;36.05;;;15.27;;
41943;SDS011;27636;52.610;13.244;2024-03-02T11:00:04;36.63;;;14.43;;
41943;SDS011;27636;52.610;13.244;2024-03-02T11:05:14;29.85;;;13.85;;
41943;SDS011;27636;52.610;13.244;2024-03-02T11:10:33;35.03;;;13.60;;
41943;SDS011;27636;52.610;13.244;2024-03-02T11:15:39;36.10;;;11.90;;
41943;SDS011;27636;52.610;13.244;2024-03-02T11:20:49;27.77;;;12.10;;
41943;SDS011;27636;52.610;13.244;2024-03-02T11:25:53;34.72;;;13.20;;
41943;SDS011;27636;52.610;13.244;2024-03-02T11:30:57;31.27;;;12.73;;
41943;SDS011;27636;52.610;13.244;2024-03-02T11:36:02;25.98;;;12.10;;
41943;SDS011;27636;52.610;13.244;2024-03-02T11:46:51;23.90;;;10.93;;
41943;SDS011;27636;52.610;13.244;2024-03-02T11:52:00;25.45;;;9.30;;
41943;SDS011;27636;52.610;13.244;2024-03-02T11:57:05;22.30;;;9.38;;
41943;SDS011;27636;52.610;13.244;2024-03-02T12:02:14;24.60;;;9.80;;
41943;SDS011;27636;52.610;13.244;2024-03-02T12:07:22;22.48;;;9.45;;
41943;SDS011;27636;52.610;13.244;2024-03-02T12:12:27;20.83;;;9.55;;
41943;SDS011;27636;52.610;13.244;2024-03-02T12:17:31;20.45;;;8.93;;
41943;SDS011;27636;52.610;13.244;2024-03-02T12:22:36;19.38;;;9.57;;
41943;SDS011;27636;52.610;13.244;2024-03-02T12:32:43;19.67;;;9.18;;
41943;SDS011;27636;52.610;13.244;2024-03-02T12:37:50;25.55;;;9.93;;
41943;SDS011;27636;52.610;13.244;2024-03-02T12:42:54;26.73;;;10.05;;
41943;SDS011;27636;52.610;13.244;2024-03-02T12:47:59;20.98;;;9.23;;
41943;SDS011;27636;52.610;13.244;2024-03-02T12:53:05;21.80;;;9.82;;
41943;SDS011;27636;52.610;13.244;2024-03-02T12:58:08;19.65;;;8.23;;
41943;SDS011;27636;52.610;13.244;2024-03-02T13:03:19;19.60;;;8.90;;
41943;SDS011;27636;52.610;13.244;2024-03-02T13:08:27;21.25;;;9.75;;
41943;SDS011;27636;52.610;13.244;2024-03-02T13:13:31;22.00;;;9.20;;
41943;SDS011;27636;52.610;13.244;2024-03-02T13:18:35;29.10;;;11.63;;
41943;SDS011;27636;52.610;13.244;2024-03-02T13:23:40;24.75;;;9.65;;
41943;SDS011;27636;52.610;13.244;2024-03-02T13:28:47;24.38;;;9.35;;
41943;SDS011;27636;52.610;13.244;2024-03-02T13:33:50;29.42;;;11.75;;
41943;SDS011;27636;52.610;13.244;2024-03-02T13:38:56;24.95;;;10.15;;
41943;SDS011;27636;52.610;13.244;2024-03-02T13:44:01;19.17;;;8.63;;
41943;SDS011;27636;52.610;13.244;2024-03-02T13:49:05;23.48;;;10.70;;
41943;SDS011;27636;52.610;13.244;2024-03-02T13:54:10;23.55;;;9.73;;
41943;SDS011;27636;52.610;13.244;2024-03-02T13:59:15;22.80;;;10.07;;
41943;SDS011;27636;52.610;13.244;2024-03-02T14:04:18;20.20;;;9.25;;
41943;SDS011;27636;52.610;13.244;2024-03-02T14:09:24;20.42;;;8.25;;
41943;SDS011;27636;52.610;13.244;2024-03-02T14:14:30;21.10;;;9.00;;
41943;SDS011;27636;52.610;13.244;2024-03-02T14:19:34;19.57;;;7.70;;
41943;SDS011;27636;52.610;13.244;2024-03-02T14:24:40;18.50;;;8.07;;
41943;SDS011;27636;52.610;13.244;2024-03-02T14:29:44;19.15;;;8.52;;
41943;SDS011;27636;52.610;13.244;2024-03-02T14:34:49;17.80;;;7.77;;
41943;SDS011;27636;52.610;13.244;2024-03-02T14:39:54;19.92;;;8.18;;
41943;SDS011;27636;52.610;13.244;2024-03-02T14:44:59;20.33;;;8.15;;
41943;SDS011;27636;52.610;13.244;2024-03-02T14:50:05;16.17;;;7.00;;
41943;SDS011;27636;52.610;13.244;2024-03-02T14:55:11;16.77;;;5.97;;
41943;SDS011;27636;52.610;13.244;2024-03-02T15:00:15;15.27;;;6.07;;
41943;SDS011;27636;52.610;13.244;2024-03-02T15:05:19;16.17;;;6.35;;
41943;SDS011;27636;52.610;13.244;2024-03-02T15:10:24;15.82;;;5.60;;
41943;SDS011;27636;52.610;13.244;2024-03-02T15:15:28;16.75;;;6.13;;
41943;SDS011;27636;52.610;13.244;2024-03-02T15:20:32;14.93;;;6.63;;
41943;SDS011;27636;52.610;13.244;2024-03-02T15:25:37;14.02;;;5.88;;
41943;SDS011;27636;52.610;13.244;2024-03-02T15:30:41;17.30;;;5.93;;
41943;SDS011;27636;52.610;13.244;2024-03-02T15:35:45;13.25;;;5.40;;
41943;SDS011;27636;52.610;13.244;2024-03-02T15:40:50;13.48;;;5.10;;
41943;SDS011;27636;52.610;13.244;2024-03-02T15:45:54;12.55;;;5.00;;
41943;SDS011;27636;52.610;13.244;2024-03-02T15:50:58;13.25;;;5.60;;
41943;SDS011;27636;52.610;13.244;2024-03-02T15:56:08;14.02;;;6.05;;
41943;SDS011;27636;52.610;13.244;2024-03-02T16:01:12;15.30;;;6.03;;
41943;SDS011;27636;52.610;13.244;2024-03-02T16:06:16;19.60;;;5.87;;
41943;SDS011;27636;52.610;13.244;2024-03-02T16:11:22;16.02;;;5.25;;
41943;SDS011;27636;52.610;13.244;2024-03-02T16:16:26;12.98;;;4.53;;
41943;SDS011;27636;52.610;13.244;2024-03-02T16:21:30;15.48;;;5.68;;
41943;SDS011;27636;52.610;13.244;2024-03-02T16:26:35;13.30;;;5.50;;
41943;SDS011;27636;52.610;13.244;2024-03-02T16:31:39;13.60;;;5.93;;
41943;SDS011;27636;52.610;13.244;2024-03-02T16:36:43;13.93;;;5.90;;
41943;SDS011;27636;52.610;13.244;2024-03-02T16:41:49;10.50;;;5.57;;
41943;SDS011;27636;52.610;13.244;2024-03-02T16:46:53;13.43;;;5.28;;
41943;SDS011;27636;52.610;13.244;2024-03-02T16:51:56;14.35;;;5.15;;
41943;SDS011;27636;52.610;13.244;2024-03-02T16:57:01;15.57;;;4.97;;
41943;SDS011;27636;52.610;13.244;2024-03-02T17:02:05;11.57;;;5.72;;
41943;SDS011;27636;52.610;13.244;2024-03-02T17:07:09;16.30;;;6.70;;
41943;SDS011;27636;52.610;13.244;2024-03-02T17:12:15;9.57;;;4.32;;
41943;SDS011;27636;52.610;13.244;2024-03-02T17:17:19;15.43;;;5.53;;
41943;SDS011;27636;52.610;13.244;2024-03-02T17:22:23;13.02;;;5.32;;
41943;SDS011;27636;52.610;13.244;2024-03-02T17:27:30;20.80;;;6.93;;
41943;SDS011;27636;52.610;13.244;2024-03-02T17:32:34;15.20;;;6.88;;
41943;SDS011;27636;52.610;13.244;2024-03-02T17:37:38;25.30;;;9.53;;
41943;SDS011;27636;52.610;13.244;2024-03-02T17:42:44;14.70;;;6.50;;
41943;SDS011;27636;52.610;13.244;2024-03-02T17:47:48;16.10;;;5.68;;
41943;SDS011;27636;52.610;13.244;2024-03-02T17:52:52;19.75;;;6.32;;
41943;SDS011;27636;52.610;13.244;2024-03-02T17:58:00;19.83;;;7.72;;
41943;SDS011;27636;52.610;13.244;2024-03-02T18:08:31;17.42;;;5.43;;
41943;SDS011;27636;52.610;13.244;2024-03-02T18:13:40;13.50;;;6.15;;
41943;SDS011;27636;52.610;13.244;2024-03-02T18:18:45;16.95;;;6.35;;
41943;SDS011;27636;52.610;13.244;2024-03-02T18:23:50;14.95;;;6.18;;
41943;SDS011;27636;52.610;13.244;2024-03-02T18:28:56;18.27;;;6.90;;
41943;SDS011;27636;52.610;13.244;2024-03-02T18:34:01;16.08;;;6.45;;
41943;SDS011;27636;52.610;13.244;2024-03-02T18:39:07;14.35;;;6.82;;
41943;SDS011;27636;52.610;13.244;2024-03-02T18:44:14;15.82;;;6.38;;
41943;SDS011;27636;52.610;13.244;2024-03-02T18:49:20;16.80;;;5.80;;
41943;SDS011;27636;52.610;13.244;2024-03-02T18:54:25;14.88;;;6.43;;
41943;SDS011;27636;52.610;13.244;2024-03-02T18:59:31;15.60;;;6.47;;
41943;SDS011;27636;52.610;13.244;2024-03-02T19:04:35;16.30;;;6.30;;
41943;SDS011;27636;52.610;13.244;2024-03-02T19:09:39;15.75;;;6.53;;
41943;SDS011;27636;52.610;13.244;2024-03-02T19:14:44;10.90;;;4.60;;
41943;SDS011;27636;52.610;13.244;2024-03-02T19:19:49;14.77;;;5.38;;
41943;SDS011;27636;52.610;13.244;2024-03-02T19:24:53;24.13;;;6.87;;
41943;SDS011;27636;52.610;13.244;2024-03-02T19:30:06;13.45;;;6.45;;
41943;SDS011;27636;52.610;13.244;2024-03-02T19:35:11;10.02;;;4.30;;
41943;SDS011;27636;52.610;13.244;2024-03-02T19:40:16;16.52;;;5.55;;
41943;SDS011;27636;52.610;13.244;2024-03-02T19:45:22;17.90;;;5.43;;
41943;SDS011;27636;52.610;13.244;2024-03-02T19:50:28;20.80;;;6.05;;
41943;SDS011;27636;52.610;13.244;2024-03-02T19:55:33;19.52;;;6.13;;
41943;SDS011;27636;52.610;13.244;2024-03-02T20:00:39;15.23;;;5.80;;
41943;SDS011;27636;52.610;13.244;2024-03-02T20:05:43;27.52;;;9.38;;
41943;SDS011;27636;52.610;13.244;2024-03-02T20:10:48;17.05;;;7.82;;
41943;SDS011;27636;52.610;13.244;2024-03-02T20:15:54;13.38;;;6.90;;
41943;SDS011;27636;52.610;13.244;2024-03-02T20:20:57;13.95;;;6.75;;
41943;SDS011;27636;52.610;13.244;2024-03-02T20:26:01;15.15;;;6.80;;
41943;SDS011;27636;52.610;13.244;2024-03-02T20:36:12;17.75;;;6.78;;
41943;SDS011;27636;52.610;13.244;2024-03-02T20:41:17;16.92;;;7.47;;
41943;SDS011;27636;52.610;13.244;2024-03-02T20:46:24;18.02;;;8.82;;
41943;SDS011;27636;52.610;13.244;2024-03-02T20:51:28;12.88;;;7.20;;
41943;SDS011;27636;52.610;13.244;2024-03-02T20:56:33;16.02;;;7.28;;
41943;SDS011;27636;52.610;13.244;2024-03-02T21:01:40;19.38;;;8.25;;
41943;SDS011;27636;52.610;13.244;2024-03-02T21:06:49;16.58;;;5.55;;
41943;SDS011;27636;52.610;13.244;2024-03-02T21:12:06;14.00;;;7.28;;
41943;SDS011;27636;52.610;13.244;2024-03-02T21:17:15;17.30;;;7.28;;
41943;SDS011;27636;52.610;13.244;2024-03-02T21:22:18;18.23;;;7.80;;
41943;SDS011;27636;52.610;13.244;2024-03-02T21:27:24;19.55;;;7.93;;
41943;SDS011;27636;52.610;13.244;2024-03-02T21:32:30;19.47;;;9.27;;
41943;SDS011;27636;52.610;13.244;2024-03-02T21:37:35;27.55;;;11.68;;
41943;SDS011;27636;52.610;13.244;2024-03-02T21:42:39;21.50;;;9.85;;
41943;SDS011;27636;52.610;13.244;2024-03-02T21:47:46;19.92;;;10.10;;
41943;SDS011;27636;52.610;13.244;2024-03-02T21:52:51;23.05;;;11.65;;
41943;SDS011;27636;52.610;13.244;2024-03-02T21:57:57;31.67;;;12.90;;
41943;SDS011;27636;52.610;13.244;2024-03-02T22:03:02;34.03;;;12.77;;
41943;SDS011;27636;52.610;13.244;2024-03-02T22:08:07;32.03;;;14.00;;
41943;SDS011;27636;52.610;13.244;2024-03-02T22:13:12;28.30;;;13.85;;
41943;SDS011;27636;52.610;13.244;2024-03-02T22:18:18;30.35;;;13.60;;
41943;SDS011;27636;52.610;13.244;2024-03-02T22:23:22;26.90;;;11.13;;
41943;SDS011;27636;52.610;13.244;2024-03-02T22:28:27;26.20;;;12.17;;
41943;SDS011;27636;52.610;13.244;2024-03-02T22:33:33;30.23;;;14.60;;
41943;SDS011;27636;52.610;13.244;2024-03-02T22:38:37;29.05;;;12.50;;
41943;SDS011;27636;52.610;13.244;2024-03-02T22:43:41;31.80;;;14.67;;
41943;SDS011;27636;52.610;13.244;2024-03-02T22:48:50;32.28;;;14.32;;
41943;SDS011;27636;52.610;13.244;2024-03-02T22:53:55;34.03;;;13.88;;
41943;SDS011;27636;52.610;13.244;2024-03-02T22:58:59;34.97;;;13.80;;
41943;SDS011;27636;52.610;13.244;2024-03-02T23:04:06;39.13;;;14.27;;
41943;SDS011;27636;52.610;13.244;2024-03-02T23:09:10;39.35;;;13.15;;
41943;SDS011;27636;52.610;13.244;2024-03-02T23:14:14;25.35;;;11.40;;
41943;SDS011;27636;52.610;13.244;2024-03-02T23:19:20;30.52;;;12.57;;
41943;SDS011;27636;52.610;13.244;2024-03-02T23:24:25;37.85;;;14.38;;
41943;SDS011;27636;52.610;13.244;2024-03-02T23:34:38;33.45;;;14.45;;
41943;SDS011;27636;52.610;13.244;2024-03-02T23:39:42;33.80;;;16.77;;
41943;SDS011;27636;52.610;13.244;2024-03-02T23:44:49;35.78;;;14.32;;
41943;SDS011;27636;52.610;13.244;2024-03-02T23:49:56;49.35;;;18.38;;
41943;SDS011;27636;52.610;13.244;2024-03-02T23:55:01;48.05;;;17.83;;
